sensor_id;sensor_type;location;lat;lon;timestamp;pressure;altitude;pressure_sealevel;temperature;humidity
46394;BME280;32099;53.588;10.176;2024-01-27T00:00:07;102386.38;;;5.95;88.35
46394;BME280;32099;53.588;10.176;2024-01-27T00:02:34;102381.91;;;5.94;88.03
46394;BME280;32099;53.588;10.176;2024-01-27T00:04:59;102389.06;;;5.95;88.44
46394;BME280;32099;53.588;10.176;2024-01-27T00:07:28;102375.41;;;5.97;88.33
46394;BME280;32099;53.588;10.176;2024-01-27T00:09:53;102372.56;;;5.98;87.72
46394;BME280;32099;53.588;10.176;2024-01-27T00:12:19;102384.28;;;5.99;88.08
46394;BME280;32099;53.588;10.176;2024-01-27T00:14:45;102378.13;;;5.97;87.68
46394;BME280;32099;53.588;10.176;2024-01-27T00:17:11;102387.88;;;5.99;87.70
46394;BME280;32099;53.588;10.176;2024-01-27T00:19:37;102385.25;;;5.98;88.06
46394;BME280;32099;53.588;10.176;2024-01-27T00:22:03;102384.63;;;5.94;87.34
46394;BME280;32099;53.588;10.176;2024-01-27T00:24:32;102379.00;;;5.97;87.99
46394;BME280;32099;53.588;10.176;2024-01-27T00:26:58;102389.06;;;5.95;87.78
46394;BME280;32099;53.588;10.176;2024-01-27T00:29:25;102389.81;;;5.97;88.03
46394;BME280;32099;53.588;10.176;2024-01-27T00:31:51;102392.41;;;5.99;87.94
46394;BME280;32099;53.588;10.176;2024-01-27T00:34:17;102406.75;;;6.01;88.23
46394;BME280;32099;53.588;10.176;2024-01-27T00:36:43;102396.66;;;6.03;87.68
46394;BME280;32099;53.588;10.176;2024-01-27T00:39:09;102400.34;;;6.02;87.77
46394;BME280;32099;53.588;10.176;2024-01-27T00:41:37;102418.09;;;6.06;88.05
46394;BME280;32099;53.588;10.176;2024-01-27T00:44:04;102417.13;;;6.07;87.65
46394;BME280;32099;53.588;10.176;2024-01-27T00:46:30;102426.97;;;6.08;88.52
46394;BME280;32099;53.588;10.176;2024-01-27T00:48:55;102428.59;;;6.11;88.22
46394;BME280;32099;53.588;10.176;2024-01-27T00:51:21;102433.03;;;6.12;88.39
46394;BME280;32099;53.588;10.176;2024-01-27T00:53:47;102427.41;;;6.15;86.87
46394;BME280;32099;53.588;10.176;2024-01-27T00:56:13;102424.56;;;6.16;88.04
46394;BME280;32099;53.588;10.176;2024-01-27T00:58:42;102429.88;;;6.18;88.06
46394;BME280;32099;53.588;10.176;2024-01-27T01:01:08;102434.41;;;6.17;87.39
46394;BME280;32099;53.588;10.176;2024-01-27T01:03:33;102438.22;;;6.15;87.74
46394;BME280;32099;53.588;10.176;2024-01-27T01:05:59;102441.06;;;6.13;88.10
46394;BME280;32099;53.588;10.176;2024-01-27T01:08:25;102451.78;;;6.15;87.65
46394;BME280;32099;53.588;10.176;2024-01-27T01:10:50;102437.25;;;6.16;87.46
46394;BME280;32099;53.588;10.176;2024-01-27T01:13:16;102448.84;;;6.18;87.46
46394;BME280;32099;53.588;10.176;2024-01-27T01:15:45;102454.13;;;6.20;87.55
46394;BME280;32099;53.588;10.176;2024-01-27T01:18:10;102441.34;;;6.22;87.66
46394;BME280;32099;53.588;10.176;2024-01-27T01:20:36;102459.34;;;6.23;87.48
46394;BME280;32099;53.588;10.176;2024-01-27T01:23:02;102458.25;;;6.25;87.63
46394;BME280;32099;53.588;10.176;2024-01-27T01:25:27;102463.56;;;6.27;88.07
46394;BME280;32099;53.588;10.176;2024-01-27T01:27:53;102456.28;;;6.27;87.64
46394;BME280;32099;53.588;10.176;2024-01-27T01:30:19;102464.41;;;6.27;87.69
46394;BME280;32099;53.588;10.176;2024-01-27T01:32:47;102477.97;;;6.27;87.28
46394;BME280;32099;53.588;10.176;2024-01-27T01:35:14;102473.41;;;6.28;87.77
46394;BME280;32099;53.588;10.176;2024-01-27T01:37:40;102480.47;;;6.30;87.67
46394;BME280;32099;53.588;10.176;2024-01-27T01:40:06;102485.63;;;6.33;88.17
46394;BME280;32099;53.588;10.176;2024-01-27T01:42:32;102500.69;;;6.38;88.40
46394;BME280;32099;53.588;10.176;2024-01-27T01:44:58;102498.00;;;6.38;88.12
46394;BME280;32099;53.588;10.176;2024-01-27T01:47:24;102508.84;;;6.38;87.63
46394;BME280;32099;53.588;10.176;2024-01-27T01:49:53;102511.88;;;6.33;88.05
46394;BME280;32099;53.588;10.176;2024-01-27T01:52:20;102512.97;;;6.30;87.42
46394;BME280;32099;53.588;10.176;2024-01-27T01:54:46;102508.19;;;6.34;87.60
46394;BME280;32099;53.588;10.176;2024-01-27T01:57:13;102518.06;;;6.35;87.77
46394;BME280;32099;53.588;10.176;2024-01-27T01:59:39;102511.75;;;6.35;87.66
46394;BME280;32099;53.588;10.176;2024-01-27T02:02:05;102521.75;;;6.34;87.26
46394;BME280;32099;53.588;10.176;2024-01-27T02:04:38;102510.91;;;6.34;87.73
46394;BME280;32099;53.588;10.176;2024-01-27T02:07:07;102525.22;;;6.36;88.05
46394;BME280;32099;53.588;10.176;2024-01-27T02:09:33;102534.97;;;6.39;87.67
46394;BME280;32099;53.588;10.176;2024-01-27T02:11:59;102534.84;;;6.40;88.05
46394;BME280;32099;53.588;10.176;2024-01-27T02:14:24;102530.28;;;6.41;87.23
46394;BME280;32099;53.588;10.176;2024-01-27T02:16:51;102524.00;;;6.40;87.97
46394;BME280;32099;53.588;10.176;2024-01-27T02:19:16;102537.44;;;6.42;87.80
46394;BME280;32099;53.588;10.176;2024-01-27T02:21:42;102548.28;;;6.42;87.68
46394;BME280;32099;53.588;10.176;2024-01-27T02:24:10;102542.88;;;6.42;87.67
46394;BME280;32099;53.588;10.176;2024-01-27T02:26:36;102552.63;;;6.44;88.15
46394;BME280;32099;53.588;10.176;2024-01-27T02:29:02;102543.63;;;6.44;87.50
46394;BME280;32099;53.588;10.176;2024-01-27T02:31:28;102551.75;;;6.44;86.83
46394;BME280;32099;53.588;10.176;2024-01-27T02:33:54;102546.34;;;6.44;87.16
46394;BME280;32099;53.588;10.176;2024-01-27T02:36:20;102544.59;;;6.43;88.08
46394;BME280;32099;53.588;10.176;2024-01-27T02:38:45;102550.03;;;6.43;87.41
46394;BME280;32099;53.588;10.176;2024-01-27T02:41:14;102546.66;;;6.39;86.81
46394;BME280;32099;53.588;10.176;2024-01-27T02:43:40;102548.50;;;6.39;88.11
46394;BME280;32099;53.588;10.176;2024-01-27T02:46:06;102546.66;;;6.39;87.39
46394;BME280;32099;53.588;10.176;2024-01-27T02:48:34;102551.97;;;6.41;88.20
46394;BME280;32099;53.588;10.176;2024-01-27T02:51:01;102552.81;;;6.41;88.35
46394;BME280;32099;53.588;10.176;2024-01-27T02:53:27;102556.31;;;6.43;87.55
46394;BME280;32099;53.588;10.176;2024-01-27T02:55:53;102491.97;;;6.08;88.03
46394;BME280;32099;53.588;10.176;2024-01-27T02:58:21;102556.31;;;6.43;88.02
46394;BME280;32099;53.588;10.176;2024-01-27T03:00:47;102563.66;;;6.41;88.44
46394;BME280;32099;53.588;10.176;2024-01-27T03:03:13;102563.78;;;6.40;88.27
46394;BME280;32099;53.588;10.176;2024-01-27T03:05:38;102566.50;;;6.40;88.31
46394;BME280;32099;53.588;10.176;2024-01-27T03:08:05;102569.34;;;6.38;88.01
46394;BME280;32099;53.588;10.176;2024-01-27T03:10:31;102572.03;;;6.38;87.96
46394;BME280;32099;53.588;10.176;2024-01-27T03:12:57;102573.88;;;6.38;88.60
46394;BME280;32099;53.588;10.176;2024-01-27T03:15:25;102569.34;;;6.38;88.40
46394;BME280;32099;53.588;10.176;2024-01-27T03:17:51;102523.28;;;5.99;88.52
46394;BME280;32099;53.588;10.176;2024-01-27T03:20:17;102573.22;;;6.34;88.49
46394;BME280;32099;53.588;10.176;2024-01-27T03:22:43;102578.88;;;6.31;88.60
46394;BME280;32099;53.588;10.176;2024-01-27T03:25:09;102581.25;;;6.36;88.64
46394;BME280;32099;53.588;10.176;2024-01-27T03:27:35;102592.06;;;6.36;89.40
46394;BME280;32099;53.588;10.176;2024-01-27T03:30:01;102589.38;;;6.36;89.51
46394;BME280;32099;53.588;10.176;2024-01-27T03:32:30;102589.50;;;6.34;89.42
46394;BME280;32099;53.588;10.176;2024-01-27T03:34:56;102583.09;;;6.35;89.20
46394;BME280;32099;53.588;10.176;2024-01-27T03:37:22;102578.66;;;6.34;88.86
46394;BME280;32099;53.588;10.176;2024-01-27T03:39:48;102590.34;;;6.35;89.23
46394;BME280;32099;53.588;10.176;2024-01-27T03:42:13;102585.16;;;6.31;88.52
46394;BME280;32099;53.588;10.176;2024-01-27T03:44:39;102589.69;;;6.31;88.91
46394;BME280;32099;53.588;10.176;2024-01-27T03:47:05;102593.38;;;6.30;89.31
46394;BME280;32099;53.588;10.176;2024-01-27T03:49:33;102590.03;;;6.26;89.25
46394;BME280;32099;53.588;10.176;2024-01-27T03:51:59;102598.50;;;6.22;89.28
46394;BME280;32099;53.588;10.176;2024-01-27T03:54:24;102593.94;;;6.22;89.75
46394;BME280;32099;53.588;10.176;2024-01-27T03:56:50;102603.69;;;6.25;89.57
46394;BME280;32099;53.588;10.176;2024-01-27T03:59:16;102601.97;;;6.24;89.82
46394;BME280;32099;53.588;10.176;2024-01-27T04:01:41;102597.53;;;6.23;89.22
46394;BME280;32099;53.588;10.176;2024-01-27T04:04:07;102611.28;;;6.20;89.11
46394;BME280;32099;53.588;10.176;2024-01-27T04:06:38;102620.38;;;6.18;89.77
46394;BME280;32099;53.588;10.176;2024-01-27T04:09:05;102615.16;;;6.15;89.13
46394;BME280;32099;53.588;10.176;2024-01-27T04:11:31;102618.63;;;6.17;89.83
46394;BME280;32099;53.588;10.176;2024-01-27T04:13:56;102616.06;;;6.16;89.49
46394;BME280;32099;53.588;10.176;2024-01-27T04:16:22;102614.31;;;6.15;90.07
46394;BME280;32099;53.588;10.176;2024-01-27T04:18:47;102622.31;;;6.16;89.06
46394;BME280;32099;53.588;10.176;2024-01-27T04:21:13;102629.81;;;6.13;89.38
46394;BME280;32099;53.588;10.176;2024-01-27T04:23:42;102625.34;;;6.12;90.03
46394;BME280;32099;53.588;10.176;2024-01-27T04:26:07;102629.72;;;6.14;89.76
46394;BME280;32099;53.588;10.176;2024-01-27T04:28:33;102630.69;;;6.13;89.56
46394;BME280;32099;53.588;10.176;2024-01-27T04:30:59;102632.63;;;6.11;89.17
46394;BME280;32099;53.588;10.176;2024-01-27T04:33:25;102631.97;;;6.08;89.22
46394;BME280;32099;53.588;10.176;2024-01-27T04:35:51;102634.91;;;6.05;89.72
46394;BME280;32099;53.588;10.176;2024-01-27T04:38:17;102633.16;;;6.04;89.39
46394;BME280;32099;53.588;10.176;2024-01-27T04:40:46;102633.38;;;6.00;89.74
46394;BME280;32099;53.588;10.176;2024-01-27T04:43:14;102636.97;;;6.01;90.51
46394;BME280;32099;53.588;10.176;2024-01-27T04:45:40;102641.41;;;6.02;90.02
46394;BME280;32099;53.588;10.176;2024-01-27T04:48:06;102650.19;;;6.06;89.94
46394;BME280;32099;53.588;10.176;2024-01-27T04:50:32;102657.22;;;6.08;90.33
46394;BME280;32099;53.588;10.176;2024-01-27T04:52:58;102651.69;;;6.10;90.02
46394;BME280;32099;53.588;10.176;2024-01-27T04:55:24;102651.69;;;6.10;90.06
46394;BME280;32099;53.588;10.176;2024-01-27T04:57:53;102642.69;;;6.09;89.30
46394;BME280;32099;53.588;10.176;2024-01-27T05:00:19;102641.09;;;6.07;89.82
46394;BME280;32099;53.588;10.176;2024-01-27T05:02:45;102645.72;;;6.05;90.18
46394;BME280;32099;53.588;10.176;2024-01-27T05:05:12;102649.28;;;6.05;90.15
46394;BME280;32099;53.588;10.176;2024-01-27T05:07:38;102652.31;;;6.00;89.23
46394;BME280;32099;53.588;10.176;2024-01-27T05:10:05;102655.44;;;5.94;89.62
46394;BME280;32099;53.588;10.176;2024-01-27T05:12:31;102652.81;;;5.93;90.29
46394;BME280;32099;53.588;10.176;2024-01-27T05:15:00;102653.81;;;5.92;90.39
46394;BME280;32099;53.588;10.176;2024-01-27T05:17:26;102647.50;;;5.91;89.81
46394;BME280;32099;53.588;10.176;2024-01-27T05:19:51;102662.34;;;5.85;91.00
46394;BME280;32099;53.588;10.176;2024-01-27T05:22:20;102661.56;;;5.83;90.33
46394;BME280;32099;53.588;10.176;2024-01-27T05:24:46;102655.09;;;5.86;90.18
46394;BME280;32099;53.588;10.176;2024-01-27T05:27:12;102671.44;;;5.84;90.55
46394;BME280;32099;53.588;10.176;2024-01-27T05:29:38;102672.41;;;5.83;90.41
46394;BME280;32099;53.588;10.176;2024-01-27T05:32:06;102670.66;;;5.82;90.77
46394;BME280;32099;53.588;10.176;2024-01-27T05:34:32;102679.69;;;5.83;90.72
46394;BME280;32099;53.588;10.176;2024-01-27T05:36:58;102689.63;;;5.82;91.12
46394;BME280;32099;53.588;10.176;2024-01-27T05:39:23;102695.94;;;5.83;90.48
46394;BME280;32099;53.588;10.176;2024-01-27T05:41:49;102690.59;;;5.81;91.28
46394;BME280;32099;53.588;10.176;2024-01-27T05:44:15;102694.59;;;5.76;90.99
46394;BME280;32099;53.588;10.176;2024-01-27T05:46:41;102701.00;;;5.75;91.25
46394;BME280;32099;53.588;10.176;2024-01-27T05:49:09;102687.34;;;5.76;90.81
46394;BME280;32099;53.588;10.176;2024-01-27T05:51:35;102696.44;;;5.75;90.80
46394;BME280;32099;53.588;10.176;2024-01-27T05:54:01;102634.84;;;5.38;91.00
46394;BME280;32099;53.588;10.176;2024-01-27T05:56:27;102702.94;;;5.72;91.10
46394;BME280;32099;53.588;10.176;2024-01-27T05:58:53;102712.88;;;5.72;91.56
46394;BME280;32099;53.588;10.176;2024-01-27T06:01:19;102707.47;;;5.72;90.35
46394;BME280;32099;53.588;10.176;2024-01-27T06:03:45;102705.97;;;5.68;91.36
46394;BME280;32099;53.588;10.176;2024-01-27T06:06:13;102701.72;;;5.64;91.02
46394;BME280;32099;53.588;10.176;2024-01-27T06:08:40;102706.16;;;5.65;91.49
46394;BME280;32099;53.588;10.176;2024-01-27T06:11:06;102710.78;;;5.63;91.38
46394;BME280;32099;53.588;10.176;2024-01-27T06:13:31;102715.25;;;5.64;91.17
46394;BME280;32099;53.588;10.176;2024-01-27T06:15:57;102714.28;;;5.65;90.90
46394;BME280;32099;53.588;10.176;2024-01-27T06:18:23;102724.34;;;5.63;91.42
46394;BME280;32099;53.588;10.176;2024-01-27T06:20:48;102713.50;;;5.63;90.93
46394;BME280;32099;53.588;10.176;2024-01-27T06:23:17;102725.50;;;5.59;91.37
46394;BME280;32099;53.588;10.176;2024-01-27T06:25:42;102720.38;;;5.54;91.92
46394;BME280;32099;53.588;10.176;2024-01-27T06:28:08;102725.59;;;5.57;91.87
46394;BME280;32099;53.588;10.176;2024-01-27T06:30:34;102721.09;;;5.58;91.82
46394;BME280;32099;53.588;10.176;2024-01-27T06:33:00;102731.22;;;5.54;91.74
46394;BME280;32099;53.588;10.176;2024-01-27T06:35:26;102719.06;;;5.47;91.70
46394;BME280;32099;53.588;10.176;2024-01-27T06:37:52;102738.13;;;5.45;91.61
46394;BME280;32099;53.588;10.176;2024-01-27T06:40:20;102743.63;;;5.44;92.73
46394;BME280;32099;53.588;10.176;2024-01-27T06:42:46;102730.31;;;5.40;92.44
46394;BME280;32099;53.588;10.176;2024-01-27T06:45:12;102748.47;;;5.38;92.40
46394;BME280;32099;53.588;10.176;2024-01-27T06:47:38;102751.97;;;5.40;92.38
46394;BME280;32099;53.588;10.176;2024-01-27T06:50:05;102750.88;;;5.43;91.85
46394;BME280;32099;53.588;10.176;2024-01-27T06:52:32;102748.25;;;5.41;91.86
46394;BME280;32099;53.588;10.176;2024-01-27T06:54:57;102758.34;;;5.39;92.06
46394;BME280;32099;53.588;10.176;2024-01-27T06:57:26;102751.84;;;5.42;92.16
46394;BME280;32099;53.588;10.176;2024-01-27T06:59:52;102764.50;;;5.41;91.10
46394;BME280;32099;53.588;10.176;2024-01-27T07:02:18;102769.25;;;5.38;91.69
46394;BME280;32099;53.588;10.176;2024-01-27T07:04:44;102769.47;;;5.35;91.36
46394;BME280;32099;53.588;10.176;2024-01-27T07:07:10;102782.22;;;5.33;91.86
46394;BME280;32099;53.588;10.176;2024-01-27T07:09:35;102776.31;;;5.26;92.14
46394;BME280;32099;53.588;10.176;2024-01-27T07:12:01;102778.25;;;5.24;91.69
46394;BME280;32099;53.588;10.176;2024-01-27T07:14:30;102773.03;;;5.21;91.92
46394;BME280;32099;53.588;10.176;2024-01-27T07:16:55;102778.94;;;5.13;92.24
46394;BME280;32099;53.588;10.176;2024-01-27T07:19:21;102719.84;;;4.78;92.31
46394;BME280;32099;53.588;10.176;2024-01-27T07:21:47;102778.25;;;5.09;92.08
46394;BME280;32099;53.588;10.176;2024-01-27T07:24:12;102789.97;;;5.10;92.00
46394;BME280;32099;53.588;10.176;2024-01-27T07:26:38;102788.41;;;5.06;91.83
46394;BME280;32099;53.588;10.176;2024-01-27T07:29:04;102793.03;;;5.04;91.72
46394;BME280;32099;53.588;10.176;2024-01-27T07:31:32;102797.66;;;5.02;91.97
46394;BME280;32099;53.588;10.176;2024-01-27T07:33:58;102801.34;;;5.01;91.87
46394;BME280;32099;53.588;10.176;2024-01-27T07:36:23;102802.22;;;5.01;91.65
46394;BME280;32099;53.588;10.176;2024-01-27T07:38:49;102814.19;;;4.97;91.76
46394;BME280;32099;53.588;10.176;2024-01-27T07:41:17;102774.38;;;4.56;92.18
46394;BME280;32099;53.588;10.176;2024-01-27T07:43:43;102821.91;;;4.89;92.48
46394;BME280;32099;53.588;10.176;2024-01-27T07:46:09;102824.72;;;4.87;92.28
46394;BME280;32099;53.588;10.176;2024-01-27T07:48:37;102822.97;;;4.86;92.67
46394;BME280;32099;53.588;10.176;2024-01-27T07:51:03;102818.81;;;4.81;91.80
46394;BME280;32099;53.588;10.176;2024-01-27T07:53:29;102828.06;;;4.76;92.06
46394;BME280;32099;53.588;10.176;2024-01-27T07:55:54;102820.06;;;4.75;92.70
46394;BME280;32099;53.588;10.176;2024-01-27T07:58:20;102831.72;;;4.75;92.63
46394;BME280;32099;53.588;10.176;2024-01-27T08:00:46;102830.78;;;4.76;93.00
46394;BME280;32099;53.588;10.176;2024-01-27T08:03:12;102819.09;;;4.76;92.08
46394;BME280;32099;53.588;10.176;2024-01-27T08:05:40;102830.88;;;4.75;92.47
46394;BME280;32099;53.588;10.176;2024-01-27T08:08:06;102806.44;;;4.76;92.07
46394;BME280;32099;53.588;10.176;2024-01-27T08:10:32;102826.16;;;4.78;92.12
46394;BME280;32099;53.588;10.176;2024-01-27T08:12:57;102813.47;;;4.79;92.54
46394;BME280;32099;53.588;10.176;2024-01-27T08:15:23;102829.63;;;4.81;92.39
46394;BME280;32099;53.588;10.176;2024-01-27T08:17:49;102819.59;;;4.83;92.02
46394;BME280;32099;53.588;10.176;2024-01-27T08:20:14;102831.16;;;4.85;91.82
46394;BME280;32099;53.588;10.176;2024-01-27T08:22:43;102824.91;;;4.84;91.41
46394;BME280;32099;53.588;10.176;2024-01-27T08:25:08;102821.22;;;4.85;91.66
46394;BME280;32099;53.588;10.176;2024-01-27T08:27:34;102827.50;;;4.86;91.10
46394;BME280;32099;53.588;10.176;2024-01-27T08:30:00;102840.06;;;4.87;91.64
46394;BME280;32099;53.588;10.176;2024-01-27T08:32:25;102850.88;;;4.87;91.66
46394;BME280;32099;53.588;10.176;2024-01-27T08:34:51;102842.75;;;4.87;91.23
46394;BME280;32099;53.588;10.176;2024-01-27T08:37:18;102838.41;;;4.84;91.57
46394;BME280;32099;53.588;10.176;2024-01-27T08:39:47;102843.72;;;4.86;91.50
46394;BME280;32099;53.588;10.176;2024-01-27T08:42:12;102851.94;;;4.84;91.63
46394;BME280;32099;53.588;10.176;2024-01-27T08:44:38;102858.91;;;4.88;91.37
46394;BME280;32099;53.588;10.176;2024-01-27T08:47:04;102860.53;;;4.91;91.62
46394;BME280;32099;53.588;10.176;2024-01-27T08:49:30;102870.69;;;5.02;91.35
46394;BME280;32099;53.588;10.176;2024-01-27T08:51:56;102879.22;;;5.10;90.35
46394;BME280;32099;53.588;10.176;2024-01-27T08:54:24;102869.25;;;5.10;90.71
46394;BME280;32099;53.588;10.176;2024-01-27T08:56:52;102882.13;;;5.21;90.62
46394;BME280;32099;53.588;10.176;2024-01-27T08:59:18;102880.59;;;5.32;89.53
46394;BME280;32099;53.588;10.176;2024-01-27T09:01:44;102873.91;;;5.37;88.77
46394;BME280;32099;53.588;10.176;2024-01-27T09:04:09;102876.88;;;5.47;89.03
46394;BME280;32099;53.588;10.176;2024-01-27T09:06:35;102879.22;;;5.53;88.11
46394;BME280;32099;53.588;10.176;2024-01-27T09:09:01;102881.44;;;5.61;88.41
46394;BME280;32099;53.588;10.176;2024-01-27T09:11:26;102875.53;;;5.69;88.18
46394;BME280;32099;53.588;10.176;2024-01-27T09:13:55;102887.53;;;5.79;86.87
46394;BME280;32099;53.588;10.176;2024-01-27T09:16:20;102886.03;;;5.88;87.70
46394;BME280;32099;53.588;10.176;2024-01-27T09:18:46;102876.94;;;5.89;86.70
46394;BME280;32099;53.588;10.176;2024-01-27T09:21:12;102884.97;;;5.91;87.07
46394;BME280;32099;53.588;10.176;2024-01-27T09:23:37;102872.19;;;5.93;86.45
46394;BME280;32099;53.588;10.176;2024-01-27T09:26:03;102881.97;;;5.95;86.58
46394;BME280;32099;53.588;10.176;2024-01-27T09:28:30;102884.09;;;6.05;86.56
46394;BME280;32099;53.588;10.176;2024-01-27T09:30:59;102876.44;;;6.11;85.84
46394;BME280;32099;53.588;10.176;2024-01-27T09:33:24;102837.41;;;5.86;86.08
46394;BME280;32099;53.588;10.176;2024-01-27T09:35:50;102877.00;;;6.16;86.03
46394;BME280;32099;53.588;10.176;2024-01-27T09:38:16;102885.69;;;6.22;85.21
46394;BME280;32099;53.588;10.176;2024-01-27T09:40:41;102897.19;;;6.25;85.65
46394;BME280;32099;53.588;10.176;2024-01-27T09:43:07;102894.84;;;6.33;84.37
46394;BME280;32099;53.588;10.176;2024-01-27T09:45:38;102891.84;;;6.38;85.20
46394;BME280;32099;53.588;10.176;2024-01-27T09:48:07;102890.44;;;6.45;85.19
46394;BME280;32099;53.588;10.176;2024-01-27T09:50:35;102887.41;;;6.50;85.12
46394;BME280;32099;53.588;10.176;2024-01-27T09:53:02;102899.19;;;6.63;84.60
46394;BME280;32099;53.588;10.176;2024-01-27T09:55:29;102886.84;;;6.72;84.33
46394;BME280;32099;53.588;10.176;2024-01-27T09:57:54;102892.47;;;6.82;84.58
46394;BME280;32099;53.588;10.176;2024-01-27T10:00:21;102894.56;;;6.91;83.89
46394;BME280;32099;53.588;10.176;2024-01-27T10:02:47;102886.97;;;6.97;83.10
46394;BME280;32099;53.588;10.176;2024-01-27T10:05:16;102894.22;;;6.96;82.52
46394;BME280;32099;53.588;10.176;2024-01-27T10:07:44;102890.88;;;6.92;82.25
46394;BME280;32099;53.588;10.176;2024-01-27T10:10:10;102896.28;;;6.92;82.98
46394;BME280;32099;53.588;10.176;2024-01-27T10:12:37;102887.81;;;6.97;81.99
46394;BME280;32099;53.588;10.176;2024-01-27T10:15:06;102896.66;;;7.01;83.79
46394;BME280;32099;53.588;10.176;2024-01-27T10:17:32;102900.47;;;7.11;82.56
46394;BME280;32099;53.588;10.176;2024-01-27T10:20:00;102906.31;;;7.18;81.76
46394;BME280;32099;53.588;10.176;2024-01-27T10:22:36;102906.09;;;7.21;82.07
46394;BME280;32099;53.588;10.176;2024-01-27T10:25:02;102914.47;;;7.31;82.80
46394;BME280;32099;53.588;10.176;2024-01-27T10:27:29;102917.50;;;7.39;81.98
46394;BME280;32099;53.588;10.176;2024-01-27T10:29:54;102917.41;;;7.40;81.73
46394;BME280;32099;53.588;10.176;2024-01-27T10:32:20;102920.97;;;7.41;82.18
46394;BME280;32099;53.588;10.176;2024-01-27T10:34:46;102923.56;;;7.43;81.02
46394;BME280;32099;53.588;10.176;2024-01-27T10:37:11;102919.78;;;7.45;82.20
46394;BME280;32099;53.588;10.176;2024-01-27T10:39:40;102923.16;;;7.49;81.16
46394;BME280;32099;53.588;10.176;2024-01-27T10:42:06;102906.53;;;7.53;81.60
46394;BME280;32099;53.588;10.176;2024-01-27T10:44:34;102908.13;;;7.56;81.25
46394;BME280;32099;53.588;10.176;2024-01-27T10:47:05;102900.53;;;7.61;81.32
46394;BME280;32099;53.588;10.176;2024-01-27T10:49:36;102913.44;;;7.70;82.14
46394;BME280;32099;53.588;10.176;2024-01-27T10:52:07;102902.38;;;7.74;81.71
46394;BME280;32099;53.588;10.176;2024-01-27T10:54:42;102919.66;;;7.72;80.88
46394;BME280;32099;53.588;10.176;2024-01-27T10:57:10;102913.66;;;7.67;80.76
46394;BME280;32099;53.588;10.176;2024-01-27T10:59:38;102905.09;;;7.61;81.68
46394;BME280;32099;53.588;10.176;2024-01-27T11:02:06;102918.44;;;7.64;79.57
46394;BME280;32099;53.588;10.176;2024-01-27T11:04:38;102915.94;;;7.61;81.61
46394;BME280;32099;53.588;10.176;2024-01-27T11:07:04;102914.75;;;7.65;81.43
46394;BME280;32099;53.588;10.176;2024-01-27T11:09:31;102908.56;;;7.63;80.57
46394;BME280;32099;53.588;10.176;2024-01-27T11:12:00;102915.22;;;7.59;81.01
46394;BME280;32099;53.588;10.176;2024-01-27T11:14:27;102907.50;;;7.52;79.93
46394;BME280;32099;53.588;10.176;2024-01-27T11:16:56;102912.63;;;7.44;80.66
46394;BME280;32099;53.588;10.176;2024-01-27T11:19:22;102907.72;;;7.36;81.66
46394;BME280;32099;53.588;10.176;2024-01-27T11:21:58;102904.44;;;7.31;82.43
46394;BME280;32099;53.588;10.176;2024-01-27T11:24:25;102906.19;;;7.32;81.34
46394;BME280;32099;53.588;10.176;2024-01-27T11:27:02;102913.59;;;7.30;81.02
46394;BME280;32099;53.588;10.176;2024-01-27T11:29:28;102922.81;;;7.28;80.79
46394;BME280;32099;53.588;10.176;2024-01-27T11:31:54;102931.94;;;7.26;81.86
46394;BME280;32099;53.588;10.176;2024-01-27T11:34:20;102936.28;;;7.29;82.26
46394;BME280;32099;53.588;10.176;2024-01-27T11:36:46;102937.91;;;7.32;81.18
46394;BME280;32099;53.588;10.176;2024-01-27T11:39:24;102933.13;;;7.35;81.74
46394;BME280;32099;53.588;10.176;2024-01-27T11:41:50;102924.00;;;7.36;81.44
46394;BME280;32099;53.588;10.176;2024-01-27T11:44:19;102931.19;;;7.37;81.11
46394;BME280;32099;53.588;10.176;2024-01-27T11:46:45;102930.97;;;7.40;82.54
46394;BME280;32099;53.588;10.176;2024-01-27T11:49:12;102933.34;;;7.45;81.76
46394;BME280;32099;53.588;10.176;2024-01-27T11:51:40;102934.84;;;7.49;82.12
46394;BME280;32099;53.588;10.176;2024-01-27T11:54:06;102940.72;;;7.56;80.27
46394;BME280;32099;53.588;10.176;2024-01-27T11:56:31;102938.78;;;7.58;81.25
46394;BME280;32099;53.588;10.176;2024-01-27T11:58:57;102939.31;;;7.63;81.64
46394;BME280;32099;53.588;10.176;2024-01-27T12:01:25;102944.19;;;7.71;78.94
46394;BME280;32099;53.588;10.176;2024-01-27T12:03:51;102952.88;;;7.76;80.54
46394;BME280;32099;53.588;10.176;2024-01-27T12:06:17;102941.03;;;7.77;79.79
46394;BME280;32099;53.588;10.176;2024-01-27T12:08:42;102950.81;;;7.80;79.31
46394;BME280;32099;53.588;10.176;2024-01-27T12:11:08;102955.91;;;7.84;79.00
46394;BME280;32099;53.588;10.176;2024-01-27T12:13:34;102959.25;;;7.88;79.12
46394;BME280;32099;53.588;10.176;2024-01-27T12:16:00;102959.25;;;7.88;79.20
46394;BME280;32099;53.588;10.176;2024-01-27T12:18:28;102961.66;;;7.93;77.97
46394;BME280;32099;53.588;10.176;2024-01-27T12:20:54;102955.91;;;7.97;79.06
46394;BME280;32099;53.588;10.176;2024-01-27T12:23:20;102960.88;;;8.03;78.86
46394;BME280;32099;53.588;10.176;2024-01-27T12:25:52;102948.91;;;8.06;78.39
46394;BME280;32099;53.588;10.176;2024-01-27T12:28:18;102956.84;;;8.09;79.89
46394;BME280;32099;53.588;10.176;2024-01-27T12:30:44;102961.16;;;8.12;77.45
46394;BME280;32099;53.588;10.176;2024-01-27T12:33:09;102963.03;;;8.11;77.23
46394;BME280;32099;53.588;10.176;2024-01-27T12:35:40;102943.78;;;8.14;78.04
46394;BME280;32099;53.588;10.176;2024-01-27T12:38:06;102958.13;;;8.16;78.48
46394;BME280;32099;53.588;10.176;2024-01-27T12:40:31;102955.16;;;8.19;78.27
46394;BME280;32099;53.588;10.176;2024-01-27T12:42:57;102948.81;;;8.32;76.55
46394;BME280;32099;53.588;10.176;2024-01-27T12:45:23;102944.03;;;8.48;75.54